sensor_id;sensor_type;location;lat;lon;timestamp;P1;durP1;ratioP1;P2;durP2;ratioP2
23632;SDS011;11993;48.748;9.166;2023-02-13T00:00:45;28.13;;;16.92;;
23632;SDS011;11993;48.748;9.166;2023-02-13T00:03:11;29.85;;;16.50;;
23632;SDS011;11993;48.748;9.166;2023-02-13T00:05:36;31.25;;;17.05;;
23632;SDS011;11993;48.748;9.166;2023-02-13T00:08:02;35.03;;;18.65;;
23632;SDS011;11993;48.748;9.166;2023-02-13T00:10:28;31.13;;;16.92;;
23632;SDS011;11993;48.748;9.166;2023-02-13T00:12:53;29.08;;;16.88;;
23632;SDS011;11993;48.748;9.166;2023-02-13T00:15:19;32.30;;;18.65;;
23632;SDS011;11993;48.748;9.166;2023-02-13T00:17:45;30.60;;;17.70;;
23632;SDS011;11993;48.748;9.166;2023-02-13T00:20:11;33.47;;;17.58;;
23632;SDS011;11993;48.748;9.166;2023-02-13T00:22:37;31.63;;;16.90;;
23632;SDS011;11993;48.748;9.166;2023-02-13T00:25:04;26.50;;;15.80;;
23632;SDS011;11993;48.748;9.166;2023-02-13T00:27:30;30.23;;;17.15;;
23632;SDS011;11993;48.748;9.166;2023-02-13T00:29:56;28.63;;;16.40;;
23632;SDS011;11993;48.748;9.166;2023-02-13T00:32:21;30.05;;;16.45;;
23632;SDS011;11993;48.748;9.166;2023-02-13T00:34:47;28.98;;;16.70;;
23632;SDS011;11993;48.748;9.166;2023-02-13T00:37:12;28.73;;;16.73;;
23632;SDS011;11993;48.748;9.166;2023-02-13T00:39:38;29.17;;;17.00;;
23632;SDS011;11993;48.748;9.166;2023-02-13T00:42:05;30.38;;;16.83;;
23632;SDS011;11993;48.748;9.166;2023-02-13T00:44:30;30.77;;;16.70;;
23632;SDS011;11993;48.748;9.166;2023-02-13T00:46:56;29.10;;;16.42;;
23632;SDS011;11993;48.748;9.166;2023-02-13T00:49:22;31.58;;;17.58;;
23632;SDS011;11993;48.748;9.166;2023-02-13T00:51:47;30.88;;;17.02;;
23632;SDS011;11993;48.748;9.166;2023-02-13T00:54:13;30.88;;;16.90;;
23632;SDS011;11993;48.748;9.166;2023-02-13T00:56:38;31.35;;;17.50;;
23632;SDS011;11993;48.748;9.166;2023-02-13T00:59:04;31.50;;;17.70;;
23632;SDS011;11993;48.748;9.166;2023-02-13T01:01:30;28.55;;;16.15;;
23632;SDS011;11993;48.748;9.166;2023-02-13T01:03:55;29.55;;;17.25;;
23632;SDS011;11993;48.748;9.166;2023-02-13T01:06:21;29.45;;;16.92;;
23632;SDS011;11993;48.748;9.166;2023-02-13T01:08:46;32.58;;;18.27;;
23632;SDS011;11993;48.748;9.166;2023-02-13T01:11:12;33.33;;;16.95;;
23632;SDS011;11993;48.748;9.166;2023-02-13T01:13:39;29.58;;;17.00;;
23632;SDS011;11993;48.748;9.166;2023-02-13T01:16:05;29.02;;;16.42;;
23632;SDS011;11993;48.748;9.166;2023-02-13T01:18:31;31.40;;;17.67;;
23632;SDS011;11993;48.748;9.166;2023-02-13T01:20:58;31.98;;;19.10;;
23632;SDS011;11993;48.748;9.166;2023-02-13T01:23:30;31.88;;;15.88;;
23632;SDS011;11993;48.748;9.166;2023-02-13T01:25:57;25.77;;;15.45;;
23632;SDS011;11993;48.748;9.166;2023-02-13T01:28:23;31.05;;;18.00;;
23632;SDS011;11993;48.748;9.166;2023-02-13T01:30:52;32.92;;;17.85;;
23632;SDS011;11993;48.748;9.166;2023-02-13T01:33:19;31.88;;;18.38;;
23632;SDS011;11993;48.748;9.166;2023-02-13T01:35:45;29.45;;;16.75;;
23632;SDS011;11993;48.748;9.166;2023-02-13T01:38:11;31.80;;;17.95;;
23632;SDS011;11993;48.748;9.166;2023-02-13T01:40:42;28.63;;;18.05;;
23632;SDS011;11993;48.748;9.166;2023-02-13T01:43:12;28.87;;;17.23;;
23632;SDS011;11993;48.748;9.166;2023-02-13T01:45:38;31.25;;;18.00;;
23632;SDS011;11993;48.748;9.166;2023-02-13T01:48:12;31.83;;;17.55;;
23632;SDS011;11993;48.748;9.166;2023-02-13T01:50:46;28.90;;;17.65;;
23632;SDS011;11993;48.748;9.166;2023-02-13T01:54:06;32.72;;;18.35;;
23632;SDS011;11993;48.748;9.166;2023-02-13T01:56:28;32.15;;;17.63;;
23632;SDS011;11993;48.748;9.166;2023-02-13T01:59:00;33.55;;;19.58;;
23632;SDS011;11993;48.748;9.166;2023-02-13T02:01:31;33.92;;;19.40;;
23632;SDS011;11993;48.748;9.166;2023-02-13T02:03:59;32.00;;;18.17;;
23632;SDS011;11993;48.748;9.166;2023-02-13T02:06:32;32.83;;;18.42;;
23632;SDS011;11993;48.748;9.166;2023-02-13T02:09:03;29.67;;;17.27;;
23632;SDS011;11993;48.748;9.166;2023-02-13T02:14:33;30.48;;;18.02;;
23632;SDS011;11993;48.748;9.166;2023-02-13T02:16:59;28.33;;;16.33;;
23632;SDS011;11993;48.748;9.166;2023-02-13T02:22:26;30.73;;;17.52;;
23632;SDS011;11993;48.748;9.166;2023-02-13T02:28:30;28.27;;;16.75;;
23632;SDS011;11993;48.748;9.166;2023-02-13T02:37:37;29.20;;;17.13;;
23632;SDS011;11993;48.748;9.166;2023-02-13T02:42:49;28.15;;;16.98;;
23632;SDS011;11993;48.748;9.166;2023-02-13T02:45:36;27.38;;;16.52;;
23632;SDS011;11993;48.748;9.166;2023-02-13T02:48:10;27.67;;;16.55;;
23632;SDS011;11993;48.748;9.166;2023-02-13T02:51:12;28.52;;;17.10;;
23632;SDS011;11993;48.748;9.166;2023-02-13T02:56:42;31.30;;;18.20;;
23632;SDS011;11993;48.748;9.166;2023-02-13T02:59:10;34.35;;;18.40;;
23632;SDS011;11993;48.748;9.166;2023-02-13T03:01:57;31.35;;;17.50;;
23632;SDS011;11993;48.748;9.166;2023-02-13T03:04:43;27.58;;;16.15;;
23632;SDS011;11993;48.748;9.166;2023-02-13T03:07:30;30.73;;;17.83;;
23632;SDS011;11993;48.748;9.166;2023-02-13T03:09:57;30.88;;;18.20;;
23632;SDS011;11993;48.748;9.166;2023-02-13T03:12:46;34.10;;;19.20;;
23632;SDS011;11993;48.748;9.166;2023-02-13T03:15:43;33.85;;;19.23;;
23632;SDS011;11993;48.748;9.166;2023-02-13T03:18:35;30.17;;;17.75;;
23632;SDS011;11993;48.748;9.166;2023-02-13T03:36:42;34.42;;;19.25;;
23632;SDS011;11993;48.748;9.166;2023-02-13T03:42:24;34.55;;;20.77;;
23632;SDS011;11993;48.748;9.166;2023-02-13T03:45:02;38.08;;;20.88;;
23632;SDS011;11993;48.748;9.166;2023-02-13T03:47:52;36.50;;;19.85;;
23632;SDS011;11993;48.748;9.166;2023-02-13T03:50:21;36.08;;;21.27;;
23632;SDS011;11993;48.748;9.166;2023-02-13T03:52:54;39.15;;;21.90;;
23632;SDS011;11993;48.748;9.166;2023-02-13T03:55:28;34.53;;;20.27;;
23632;SDS011;11993;48.748;9.166;2023-02-13T03:58:19;38.50;;;20.88;;
23632;SDS011;11993;48.748;9.166;2023-02-13T04:01:07;38.88;;;22.10;;
23632;SDS011;11993;48.748;9.166;2023-02-13T04:03:39;37.70;;;22.48;;
23632;SDS011;11993;48.748;9.166;2023-02-13T04:06:12;37.60;;;20.95;;
23632;SDS011;11993;48.748;9.166;2023-02-13T04:08:47;37.95;;;22.20;;
23632;SDS011;11993;48.748;9.166;2023-02-13T04:13:44;35.33;;;21.33;;
23632;SDS011;11993;48.748;9.166;2023-02-13T04:16:29;37.42;;;22.05;;
23632;SDS011;11993;48.748;9.166;2023-02-13T04:19:02;38.10;;;21.40;;
23632;SDS011;11993;48.748;9.166;2023-02-13T04:21:37;34.78;;;21.52;;
23632;SDS011;11993;48.748;9.166;2023-02-13T04:24:07;36.15;;;20.77;;
23632;SDS011;11993;48.748;9.166;2023-02-13T04:26:40;36.80;;;21.17;;
23632;SDS011;11993;48.748;9.166;2023-02-13T04:29:07;35.85;;;20.45;;
23632;SDS011;11993;48.748;9.166;2023-02-13T04:31:33;37.28;;;21.65;;
23632;SDS011;11993;48.748;9.166;2023-02-13T04:33:59;33.85;;;19.67;;
23632;SDS011;11993;48.748;9.166;2023-02-13T04:36:24;34.42;;;21.02;;
23632;SDS011;11993;48.748;9.166;2023-02-13T04:38:50;35.35;;;21.15;;
23632;SDS011;11993;48.748;9.166;2023-02-13T04:41:16;34.60;;;20.35;;
23632;SDS011;11993;48.748;9.166;2023-02-13T04:43:42;40.97;;;23.00;;
23632;SDS011;11993;48.748;9.166;2023-02-13T04:46:07;40.83;;;21.42;;
23632;SDS011;11993;48.748;9.166;2023-02-13T04:48:33;38.53;;;21.02;;
23632;SDS011;11993;48.748;9.166;2023-02-13T04:50:58;37.95;;;21.02;;
23632;SDS011;11993;48.748;9.166;2023-02-13T04:53:24;39.78;;;21.88;;
23632;SDS011;11993;48.748;9.166;2023-02-13T04:55:50;40.38;;;23.05;;
23632;SDS011;11993;48.748;9.166;2023-02-13T04:58:16;35.97;;;21.20;;
23632;SDS011;11993;48.748;9.166;2023-02-13T05:00:41;36.75;;;21.67;;
23632;SDS011;11993;48.748;9.166;2023-02-13T05:03:08;35.65;;;20.80;;
23632;SDS011;11993;48.748;9.166;2023-02-13T05:05:35;39.20;;;22.85;;
23632;SDS011;11993;48.748;9.166;2023-02-13T05:08:01;32.88;;;20.13;;
23632;SDS011;11993;48.748;9.166;2023-02-13T05:10:27;37.60;;;22.13;;
23632;SDS011;11993;48.748;9.166;2023-02-13T05:12:53;38.38;;;21.65;;
23632;SDS011;11993;48.748;9.166;2023-02-13T05:15:19;38.03;;;22.35;;
23632;SDS011;11993;48.748;9.166;2023-02-13T05:17:45;35.25;;;21.00;;
23632;SDS011;11993;48.748;9.166;2023-02-13T05:20:11;36.63;;;20.88;;
23632;SDS011;11993;48.748;9.166;2023-02-13T05:22:45;35.60;;;20.85;;
23632;SDS011;11993;48.748;9.166;2023-02-13T05:25:34;38.60;;;22.00;;
23632;SDS011;11993;48.748;9.166;2023-02-13T05:28:01;35.83;;;20.58;;
23632;SDS011;11993;48.748;9.166;2023-02-13T05:30:27;38.35;;;21.98;;
23632;SDS011;11993;48.748;9.166;2023-02-13T05:32:52;37.92;;;22.05;;
23632;SDS011;11993;48.748;9.166;2023-02-13T05:35:19;37.75;;;20.95;;
23632;SDS011;11993;48.748;9.166;2023-02-13T05:37:46;37.53;;;21.02;;
23632;SDS011;11993;48.748;9.166;2023-02-13T05:40:12;34.75;;;20.95;;
23632;SDS011;11993;48.748;9.166;2023-02-13T05:42:38;32.33;;;19.55;;
23632;SDS011;11993;48.748;9.166;2023-02-13T05:45:04;34.85;;;19.83;;
23632;SDS011;11993;48.748;9.166;2023-02-13T05:47:30;32.20;;;19.63;;
23632;SDS011;11993;48.748;9.166;2023-02-13T05:49:56;30.35;;;18.15;;
23632;SDS011;11993;48.748;9.166;2023-02-13T05:52:22;34.83;;;18.75;;
23632;SDS011;11993;48.748;9.166;2023-02-13T05:54:47;32.58;;;19.83;;
23632;SDS011;11993;48.748;9.166;2023-02-13T05:57:13;42.58;;;26.45;;
23632;SDS011;11993;48.748;9.166;2023-02-13T05:59:39;47.30;;;29.05;;
23632;SDS011;11993;48.748;9.166;2023-02-13T06:02:04;48.05;;;27.70;;
23632;SDS011;11993;48.748;9.166;2023-02-13T06:04:30;40.53;;;23.20;;
23632;SDS011;11993;48.748;9.166;2023-02-13T06:06:55;34.00;;;19.77;;
23632;SDS011;11993;48.748;9.166;2023-02-13T06:09:21;34.63;;;19.08;;
23632;SDS011;11993;48.748;9.166;2023-02-13T06:11:46;35.80;;;20.00;;
23632;SDS011;11993;48.748;9.166;2023-02-13T06:14:12;33.60;;;19.55;;
23632;SDS011;11993;48.748;9.166;2023-02-13T06:16:38;36.00;;;19.77;;
23632;SDS011;11993;48.748;9.166;2023-02-13T06:19:04;34.20;;;18.58;;
23632;SDS011;11993;48.748;9.166;2023-02-13T06:21:31;33.50;;;19.35;;
23632;SDS011;11993;48.748;9.166;2023-02-13T06:24:01;39.47;;;20.95;;
23632;SDS011;11993;48.748;9.166;2023-02-13T06:26:28;36.45;;;20.85;;
23632;SDS011;11993;48.748;9.166;2023-02-13T06:28:53;35.55;;;19.13;;
23632;SDS011;11993;48.748;9.166;2023-02-13T06:31:19;35.25;;;20.05;;
23632;SDS011;11993;48.748;9.166;2023-02-13T06:33:45;37.67;;;20.48;;
23632;SDS011;11993;48.748;9.166;2023-02-13T06:36:10;36.50;;;20.23;;
23632;SDS011;11993;48.748;9.166;2023-02-13T06:38:36;38.65;;;21.17;;
23632;SDS011;11993;48.748;9.166;2023-02-13T06:41:01;43.20;;;23.48;;
23632;SDS011;11993;48.748;9.166;2023-02-13T06:43:27;42.88;;;24.15;;
23632;SDS011;11993;48.748;9.166;2023-02-13T06:45:52;38.28;;;23.20;;
23632;SDS011;11993;48.748;9.166;2023-02-13T06:48:18;43.35;;;23.42;;
23632;SDS011;11993;48.748;9.166;2023-02-13T06:50:44;41.92;;;23.42;;
23632;SDS011;11993;48.748;9.166;2023-02-13T06:53:10;38.83;;;22.17;;
23632;SDS011;11993;48.748;9.166;2023-02-13T06:55:35;33.58;;;18.85;;
23632;SDS011;11993;48.748;9.166;2023-02-13T06:58:03;36.22;;;20.45;;
23632;SDS011;11993;48.748;9.166;2023-02-13T07:00:29;35.88;;;18.67;;
23632;SDS011;11993;48.748;9.166;2023-02-13T07:03:01;32.13;;;18.58;;
23632;SDS011;11993;48.748;9.166;2023-02-13T07:05:39;38.28;;;20.80;;
23632;SDS011;11993;48.748;9.166;2023-02-13T07:08:05;34.53;;;19.25;;
23632;SDS011;11993;48.748;9.166;2023-02-13T07:10:32;36.47;;;19.92;;
23632;SDS011;11993;48.748;9.166;2023-02-13T07:12:57;41.42;;;23.08;;
23632;SDS011;11993;48.748;9.166;2023-02-13T07:15:23;45.45;;;22.45;;
23632;SDS011;11993;48.748;9.166;2023-02-13T07:17:54;33.03;;;19.88;;
23632;SDS011;11993;48.748;9.166;2023-02-13T07:20:21;36.28;;;20.05;;
23632;SDS011;11993;48.748;9.166;2023-02-13T07:22:46;39.63;;;21.65;;
23632;SDS011;11993;48.748;9.166;2023-02-13T07:25:12;36.25;;;20.65;;
23632;SDS011;11993;48.748;9.166;2023-02-13T07:27:37;42.35;;;23.00;;
23632;SDS011;11993;48.748;9.166;2023-02-13T07:30:03;38.60;;;22.38;;
23632;SDS011;11993;48.748;9.166;2023-02-13T07:32:29;36.30;;;21.23;;
23632;SDS011;11993;48.748;9.166;2023-02-13T07:34:56;35.60;;;20.50;;
23632;SDS011;11993;48.748;9.166;2023-02-13T07:37:21;38.35;;;22.67;;
23632;SDS011;11993;48.748;9.166;2023-02-13T07:39:47;35.47;;;20.92;;
23632;SDS011;11993;48.748;9.166;2023-02-13T07:42:13;34.13;;;19.85;;
23632;SDS011;11993;48.748;9.166;2023-02-13T07:44:39;32.75;;;20.42;;
23632;SDS011;11993;48.748;9.166;2023-02-13T07:47:05;33.65;;;20.05;;
23632;SDS011;11993;48.748;9.166;2023-02-13T07:49:30;31.60;;;18.95;;
23632;SDS011;11993;48.748;9.166;2023-02-13T07:51:56;30.98;;;18.45;;
23632;SDS011;11993;48.748;9.166;2023-02-13T07:54:24;31.52;;;18.92;;
23632;SDS011;11993;48.748;9.166;2023-02-13T07:56:51;33.15;;;19.45;;
23632;SDS011;11993;48.748;9.166;2023-02-13T07:59:17;30.63;;;17.70;;
23632;SDS011;11993;48.748;9.166;2023-02-13T08:01:42;29.73;;;17.55;;
23632;SDS011;11993;48.748;9.166;2023-02-13T08:04:08;28.70;;;17.70;;
23632;SDS011;11993;48.748;9.166;2023-02-13T08:06:33;33.22;;;19.05;;
23632;SDS011;11993;48.748;9.166;2023-02-13T08:08:59;34.80;;;20.38;;
23632;SDS011;11993;48.748;9.166;2023-02-13T08:11:43;33.95;;;19.73;;
23632;SDS011;11993;48.748;9.166;2023-02-13T08:14:21;30.40;;;19.92;;
23632;SDS011;11993;48.748;9.166;2023-02-13T08:16:48;35.65;;;19.58;;
23632;SDS011;11993;48.748;9.166;2023-02-13T08:19:14;33.28;;;21.15;;
23632;SDS011;11993;48.748;9.166;2023-02-13T08:21:39;29.58;;;19.50;;
23632;SDS011;11993;48.748;9.166;2023-02-13T08:24:05;29.52;;;18.88;;
23632;SDS011;11993;48.748;9.166;2023-02-13T08:26:31;35.70;;;20.55;;
23632;SDS011;11993;48.748;9.166;2023-02-13T08:28:57;32.03;;;19.75;;
23632;SDS011;11993;48.748;9.166;2023-02-13T08:31:23;28.52;;;17.85;;
23632;SDS011;11993;48.748;9.166;2023-02-13T08:33:49;27.45;;;17.17;;
23632;SDS011;11993;48.748;9.166;2023-02-13T08:36:14;27.42;;;17.88;;
23632;SDS011;11993;48.748;9.166;2023-02-13T08:38:40;20.75;;;13.93;;
23632;SDS011;11993;48.748;9.166;2023-02-13T08:41:06;22.08;;;13.73;;
23632;SDS011;11993;48.748;9.166;2023-02-13T08:43:32;21.80;;;13.88;;
23632;SDS011;11993;48.748;9.166;2023-02-13T08:45:57;23.90;;;14.13;;
23632;SDS011;11993;48.748;9.166;2023-02-13T08:48:24;19.88;;;13.77;;
23632;SDS011;11993;48.748;9.166;2023-02-13T08:50:53;18.80;;;12.45;;
23632;SDS011;11993;48.748;9.166;2023-02-13T08:53:19;20.67;;;13.60;;
23632;SDS011;11993;48.748;9.166;2023-02-13T08:55:54;24.50;;;15.35;;
23632;SDS011;11993;48.748;9.166;2023-02-13T08:58:20;21.73;;;13.65;;
23632;SDS011;11993;48.748;9.166;2023-02-13T09:00:46;21.83;;;13.95;;
23632;SDS011;11993;48.748;9.166;2023-02-13T09:03:12;23.20;;;14.27;;
23632;SDS011;11993;48.748;9.166;2023-02-13T09:05:38;21.27;;;13.60;;
23632;SDS011;11993;48.748;9.166;2023-02-13T09:08:03;23.55;;;13.57;;
23632;SDS011;11993;48.748;9.166;2023-02-13T09:10:30;21.42;;;14.30;;
23632;SDS011;11993;48.748;9.166;2023-02-13T09:12:56;22.00;;;14.57;;
23632;SDS011;11993;48.748;9.166;2023-02-13T09:15:21;19.50;;;12.95;;
23632;SDS011;11993;48.748;9.166;2023-02-13T09:17:47;19.38;;;12.15;;
23632;SDS011;11993;48.748;9.166;2023-02-13T09:20:13;18.77;;;13.65;;
23632;SDS011;11993;48.748;9.166;2023-02-13T09:22:39;19.63;;;12.80;;
23632;SDS011;11993;48.748;9.166;2023-02-13T09:25:05;16.63;;;11.65;;
23632;SDS011;11993;48.748;9.166;2023-02-13T09:27:32;18.98;;;12.20;;
23632;SDS011;11993;48.748;9.166;2023-02-13T09:29:58;16.85;;;11.23;;
23632;SDS011;11993;48.748;9.166;2023-02-13T09:32:24;15.40;;;11.07;;
23632;SDS011;11993;48.748;9.166;2023-02-13T09:34:50;16.80;;;10.23;;
23632;SDS011;11993;48.748;9.166;2023-02-13T09:37:15;18.20;;;11.38;;
23632;SDS011;11993;48.748;9.166;2023-02-13T09:39:41;16.52;;;10.35;;
23632;SDS011;11993;48.748;9.166;2023-02-13T09:44:59;17.25;;;11.07;;
23632;SDS011;11993;48.748;9.166;2023-02-13T09:47:31;16.50;;;11.30;;
23632;SDS011;11993;48.748;9.166;2023-02-13T09:55:18;15.85;;;10.38;;
23632;SDS011;11993;48.748;9.166;2023-02-13T09:58:02;23.52;;;10.80;;
23632;SDS011;11993;48.748;9.166;2023-02-13T10:00:39;14.55;;;10.52;;
23632;SDS011;11993;48.748;9.166;2023-02-13T10:08:40;14.15;;;10.60;;
23632;SDS011;11993;48.748;9.166;2023-02-13T10:13:51;17.75;;;10.48;;
23632;SDS011;11993;48.748;9.166;2023-02-13T10:16:22;18.90;;;10.65;;
23632;SDS011;11993;48.748;9.166;2023-02-13T10:18:56;19.75;;;13.77;;
23632;SDS011;11993;48.748;9.166;2023-02-13T10:21:27;15.85;;;10.25;;
23632;SDS011;11993;48.748;9.166;2023-02-13T10:24:04;13.02;;;9.50;;
23632;SDS011;11993;48.748;9.166;2023-02-13T10:26:36;17.48;;;10.68;;
23632;SDS011;11993;48.748;9.166;2023-02-13T10:29:14;13.60;;;9.70;;
23632;SDS011;11993;48.748;9.166;2023-02-13T10:32:06;13.70;;;9.75;;
23632;SDS011;11993;48.748;9.166;2023-02-13T10:34:36;13.95;;;9.48;;
23632;SDS011;11993;48.748;9.166;2023-02-13T10:37:08;15.20;;;9.43;;
23632;SDS011;11993;48.748;9.166;2023-02-13T10:39:39;13.70;;;8.93;;
23632;SDS011;11993;48.748;9.166;2023-02-13T10:42:12;12.85;;;8.68;;
23632;SDS011;11993;48.748;9.166;2023-02-13T10:50:00;14.93;;;10.63;;
23632;SDS011;11993;48.748;9.166;2023-02-13T10:52:40;15.80;;;8.73;;
23632;SDS011;11993;48.748;9.166;2023-02-13T11:03:21;11.73;;;8.15;;
23632;SDS011;11993;48.748;9.166;2023-02-13T11:05:49;11.80;;;8.52;;
23632;SDS011;11993;48.748;9.166;2023-02-13T11:08:17;11.85;;;8.52;;
23632;SDS011;11993;48.748;9.166;2023-02-13T11:10:45;11.38;;;8.77;;
23632;SDS011;11993;48.748;9.166;2023-02-13T11:13:29;11.82;;;8.27;;
23632;SDS011;11993;48.748;9.166;2023-02-13T11:16:05;11.10;;;8.63;;
23632;SDS011;11993;48.748;9.166;2023-02-13T11:18:33;12.77;;;7.80;;
23632;SDS011;11993;48.748;9.166;2023-02-13T11:21:06;8.93;;;7.35;;
23632;SDS011;11993;48.748;9.166;2023-02-13T11:26:13;9.35;;;7.03;;
23632;SDS011;11993;48.748;9.166;2023-02-13T11:28:53;11.32;;;7.07;;
23632;SDS011;11993;48.748;9.166;2023-02-13T11:33:51;7.95;;;6.57;;
23632;SDS011;11993;48.748;9.166;2023-02-13T11:36:24;8.07;;;6.78;;
23632;SDS011;11993;48.748;9.166;2023-02-13T11:39:02;9.60;;;7.05;;
23632;SDS011;11993;48.748;9.166;2023-02-13T11:41:31;8.82;;;6.88;;
23632;SDS011;11993;48.748;9.166;2023-02-13T11:44:03;7.82;;;6.63;;
23632;SDS011;11993;48.748;9.166;2023-02-13T11:46:42;10.07;;;6.88;;
23632;SDS011;11993;48.748;9.166;2023-02-13T11:49:25;8.55;;;5.78;;
23632;SDS011;11993;48.748;9.166;2023-02-13T11:51:54;9.93;;;6.63;;
23632;SDS011;11993;48.748;9.166;2023-02-13T11:56:49;10.45;;;6.07;;
23632;SDS011;11993;48.748;9.166;2023-02-13T11:59:23;9.25;;;7.13;;
23632;SDS011;11993;48.748;9.166;2023-02-13T12:04:36;8.32;;;6.72;;
23632;SDS011;11993;48.748;9.166;2023-02-13T12:10:02;8.18;;;6.68;;
23632;SDS011;11993;48.748;9.166;2023-02-13T12:12:53;9.48;;;7.32;;
23632;SDS011;11993;48.748;9.166;2023-02-13T12:23:34;8.57;;;6.93;;
23632;SDS011;11993;48.748;9.166;2023-02-13T12:26:22;8.88;;;6.38;;
23632;SDS011;11993;48.748;9.166;2023-02-13T12:31:55;7.88;;;6.18;;
23632;SDS011;11993;48.748;9.166;2023-02-13T12:42:58;9.98;;;7.90;;
23632;SDS011;11993;48.748;9.166;2023-02-13T12:46:35;12.75;;;9.20;;
23632;SDS011;11993;48.748;9.166;2023-02-13T12:48:38;12.00;;;7.75;;
23632;SDS011;11993;48.748;9.166;2023-02-13T12:54:24;9.70;;;7.93;;
23632;SDS011;11993;48.748;9.166;2023-02-13T12:57:02;10.68;;;7.93;;
23632;SDS011;11993;48.748;9.166;2023-02-13T13:13:58;13.77;;;8.85;;
23632;SDS011;11993;48.748;9.166;2023-02-13T13:16:46;12.27;;;8.50;;
23632;SDS011;11993;48.748;9.166;2023-02-13T13:19:23;13.20;;;8.68;;
23632;SDS011;11993;48.748;9.166;2023-02-13T13:22:03;10.50;;;8.68;;
23632;SDS011;11993;48.748;9.166;2023-02-13T13:26:57;14.82;;;8.93;;
23632;SDS011;11993;48.748;9.166;2023-02-13T13:29:26;10.43;;;8.32;;
23632;SDS011;11993;48.748;9.166;2023-02-13T13:32:02;10.73;;;8.93;;
23632;SDS011;11993;48.748;9.166;2023-02-13T13:34:37;13.52;;;9.43;;
23632;SDS011;11993;48.748;9.166;2023-02-13T13:37:05;11.77;;;9.40;;
23632;SDS011;11993;48.748;9.166;2023-02-13T13:39:47;10.75;;;8.75;;
23632;SDS011;11993;48.748;9.166;2023-02-13T13:50:20;12.77;;;8.90;;
23632;SDS011;11993;48.748;9.166;2023-02-13T13:53:05;13.30;;;8.90;;
23632;SDS011;11993;48.748;9.166;2023-02-13T13:58:24;11.43;;;8.27;;
23632;SDS011;11993;48.748;9.166;2023-02-13T14:03:47;12.05;;;8.70;;
23632;SDS011;11993;48.748;9.166;2023-02-13T14:06:16;12.63;;;9.48;;
23632;SDS011;11993;48.748;9.166;2023-02-13T14:11:26;10.68;;;8.55;;
23632;SDS011;11993;48.748;9.166;2023-02-13T14:13:59;16.90;;;12.40;;
23632;SDS011;11993;48.748;9.166;2023-02-13T14:16:35;11.85;;;9.90;;
23632;SDS011;11993;48.748;9.166;2023-02-13T14:24:50;14.02;;;9.98;;
23632;SDS011;11993;48.748;9.166;2023-02-13T14:27:19;11.65;;;9.25;;
23632;SDS011;11993;48.748;9.166;2023-02-13T14:29:47;11.80;;;8.63;;
23632;SDS011;11993;48.748;9.166;2023-02-13T14:32:18;9.95;;;8.10;;
23632;SDS011;11993;48.748;9.166;2023-02-13T14:35:00;15.07;;;12.25;;
23632;SDS011;11993;48.748;9.166;2023-02-13T14:37:46;11.07;;;8.68;;
23632;SDS011;11993;48.748;9.166;2023-02-13T14:42:49;11.35;;;8.07;;
23632;SDS011;11993;48.748;9.166;2023-02-13T14:45:35;9.93;;;7.85;;
23632;SDS011;11993;48.748;9.166;2023-02-13T14:48:12;10.40;;;7.90;;
23632;SDS011;11993;48.748;9.166;2023-02-13T14:50:42;8.50;;;7.35;;
23632;SDS011;11993;48.748;9.166;2023-02-13T14:53:23;10.68;;;7.93;;
23632;SDS011;11993;48.748;9.166;2023-02-13T14:55:56;10.10;;;8.25;;
23632;SDS011;11993;48.748;9.166;2023-02-13T14:58:30;10.32;;;8.43;;
23632;SDS011;11993;48.748;9.166;2023-02-13T15:06:25;12.40;;;8.93;;
23632;SDS011;11993;48.748;9.166;2023-02-13T15:08:53;17.20;;;8.70;;
23632;SDS011;11993;48.748;9.166;2023-02-13T15:11:34;10.30;;;8.32;;
23632;SDS011;11993;48.748;9.166;2023-02-13T15:14:18;11.63;;;8.85;;
23632;SDS011;11993;48.748;9.166;2023-02-13T15:16:47;15.13;;;9.18;;
23632;SDS011;11993;48.748;9.166;2023-02-13T15:19:20;16.13;;;9.45;;
23632;SDS011;11993;48.748;9.166;2023-02-13T15:21:49;13.95;;;8.80;;
23632;SDS011;11993;48.748;9.166;2023-02-13T15:24:21;12.77;;;8.60;;
23632;SDS011;11993;48.748;9.166;2023-02-13T15:26:57;11.98;;;9.13;;
23632;SDS011;11993;48.748;9.166;2023-02-13T15:29:24;11.95;;;8.55;;
23632;SDS011;11993;48.748;9.166;2023-02-13T15:31:50;10.80;;;8.77;;
23632;SDS011;11993;48.748;9.166;2023-02-13T15:36:56;13.18;;;9.45;;
23632;SDS011;11993;48.748;9.166;2023-02-13T15:39:22;14.48;;;8.63;;
23632;SDS011;11993;48.748;9.166;2023-02-13T15:41:51;11.63;;;8.18;;
23632;SDS011;11993;48.748;9.166;2023-02-13T15:44:21;12.65;;;8.80;;
23632;SDS011;11993;48.748;9.166;2023-02-13T15:46:52;10.95;;;8.45;;
23632;SDS011;11993;48.748;9.166;2023-02-13T15:49:21;9.57;;;7.78;;
23632;SDS011;11993;48.748;9.166;2023-02-13T15:51:50;10.80;;;7.60;;
23632;SDS011;11993;48.748;9.166;2023-02-13T15:54:29;11.52;;;8.27;;
23632;SDS011;11993;48.748;9.166;2023-02-13T15:56:57;11.15;;;8.25;;
23632;SDS011;11993;48.748;9.166;2023-02-13T15:59:27;13.57;;;9.00;;
23632;SDS011;11993;48.748;9.166;2023-02-13T16:01:59;12.63;;;9.13;;
23632;SDS011;11993;48.748;9.166;2023-02-13T16:04:26;12.35;;;8.50;;
23632;SDS011;11993;48.748;9.166;2023-02-13T16:06:52;12.30;;;8.05;;
23632;SDS011;11993;48.748;9.166;2023-02-13T16:09:21;16.25;;;10.70;;
23632;SDS011;11993;48.748;9.166;2023-02-13T16:11:47;14.25;;;9.73;;
23632;SDS011;11993;48.748;9.166;2023-02-13T16:16:54;12.05;;;8.90;;
23632;SDS011;11993;48.748;9.166;2023-02-13T16:19:32;13.18;;;7.80;;
23632;SDS011;11993;48.748;9.166;2023-02-13T16:24:46;11.93;;;8.25;;
23632;SDS011;11993;48.748;9.166;2023-02-13T16:27:14;13.40;;;9.43;;
23632;SDS011;11993;48.748;9.166;2023-02-13T16:29:44;13.02;;;9.52;;
23632;SDS011;11993;48.748;9.166;2023-02-13T16:32:19;13.77;;;9.85;;
23632;SDS011;11993;48.748;9.166;2023-02-13T16:34:50;13.27;;;9.48;;
23632;SDS011;11993;48.748;9.166;2023-02-13T16:37:27;14.75;;;9.98;;
23632;SDS011;11993;48.748;9.166;2023-02-13T16:40:18;15.05;;;9.32;;
23632;SDS011;11993;48.748;9.166;2023-02-13T16:43:31;13.95;;;9.25;;
23632;SDS011;11993;48.748;9.166;2023-02-13T16:48:39;15.23;;;9.80;;
23632;SDS011;11993;48.748;9.166;2023-02-13T16:51:05;12.45;;;9.68;;
23632;SDS011;11993;48.748;9.166;2023-02-13T16:53:32;13.00;;;9.63;;
23632;SDS011;11993;48.748;9.166;2023-02-13T16:56:01;13.73;;;9.48;;
23632;SDS011;11993;48.748;9.166;2023-02-13T16:58:30;14.60;;;9.90;;
23632;SDS011;11993;48.748;9.166;2023-02-13T17:00:55;15.77;;;10.05;;
23632;SDS011;11993;48.748;9.166;2023-02-13T17:03:21;14.27;;;9.68;;
23632;SDS011;11993;48.748;9.166;2023-02-13T17:05:47;15.27;;;10.23;;
23632;SDS011;11993;48.748;9.166;2023-02-13T17:08:12;17.65;;;11.02;;
23632;SDS011;11993;48.748;9.166;2023-02-13T17:10:38;17.48;;;11.13;;
23632;SDS011;11993;48.748;9.166;2023-02-13T17:15:35;16.20;;;11.30;;
23632;SDS011;11993;48.748;9.166;2023-02-13T17:18:01;17.08;;;12.50;;
23632;SDS011;11993;48.748;9.166;2023-02-13T17:20:28;19.05;;;10.85;;
23632;SDS011;11993;48.748;9.166;2023-02-13T17:22:55;16.73;;;11.75;;
23632;SDS011;11993;48.748;9.166;2023-02-13T17:25:33;19.50;;;12.20;;
23632;SDS011;11993;48.748;9.166;2023-02-13T17:28:06;20.55;;;12.23;;
23632;SDS011;11993;48.748;9.166;2023-02-13T17:30:39;20.02;;;11.63;;
23632;SDS011;11993;48.748;9.166;2023-02-13T17:33:06;16.85;;;11.25;;